気象予報士の航空気象 熱帯夜、雷雨、霧

*All archives   *Admin

スポンサーサイト

上記の広告は1ヶ月以上更新のないブログに表示されています。
新しい記事を書く事で広告が消せます。
--:--  |  スポンサー広告  |  EDIT  |  Top↑

2010.06.28 (Mon)

熱帯夜、雷雨、霧

RJTT 271930Z VRB02KT 9000 FEW015 SCT140 BKN170 24/22 Q1007
RMK 1CU015 3AC140 6AC170 A2975


関東では、熱帯夜になった地域もあるようです。


昼に散歩をしたら、暑さと湿気で倒れそうになりました。


サウナ風呂の中にいるようでした。


夕方から、雷雨。


RJTT 280830Z VRB02KT 9000 -TSRA SCT030 FEW030CB BKN100 29/23 Q1006
RMK 3CU030 1CB030 7AC100 A2971 FBL TS 10KM SW MOV SE


そして、夜には晴れて霧が発生することでしょう。


RJAA 281430Z 11002KT 3300 BR FEW020 BKN060 24/23 Q1008 NOSIG
RMK 1CU020 6SC060 A2977


夜11時。すでに、視程が落ちてきています。



 
ブログランキングに参加しています。
にほんブログ村 環境ブログ 天気・気象学へ
にほんブログ村
応援クリックをおねがします。


以下、アフィリエイトサイトです。

スポンサーサイト
23:55  |  気象・天気  |  TB(0)  |  CM(0)  |  EDIT  |  Top↑

コメントを投稿する


 管理者だけに表示  (非公開コメント投稿可能)

▲PageTop

この記事のトラックバックURL

→http://weathereucalyptus.blog115.fc2.com/tb.php/530-9a35dba4
この記事にトラックバックする(FC2ブログユーザー)

この記事へのトラックバック

▲PageTop

 | BLOGTOP | 
上記広告は1ヶ月以上更新のないブログに表示されています。新しい記事を書くことで広告を消せます。